Time;durP1;ratioP1;P1;durP2;ratioP2;P2;SDS_P1;SDS_P2;PMS_P1;PMS_P2;Temp;Humidity;BMP_temperature;BMP_pressure;BME280_temperature;BME280_humidity;BME280_pressure;Samples;Min_cycle;Max_cycle;Signal;HPM_P1;HPM_P2
2023/10/16 00:04:00;;;;;;;0.52;0.52;;;;;;;14.49;100.00;100041.72;4974835;28;20422;-77
2023/10/16 00:07:01;;;;;;;1.33;0.85;;;;;;;14.42;100.00;100060.34;4973495;28;20071;-75
2023/10/16 00:12:49;;;;;;;0.73;0.68;;;;;;;14.04;100.00;100051.44;4974338;28;20105;-76
2023/10/16 00:15:16;;;;;;;0.35;0.28;;;;;;;13.74;100.00;99979.94;4973818;28;20038;-73
2023/10/16 00:17:43;;;;;;;0.45;0.45;;;;;;;13.51;100.00;99959.31;4974087;28;20032;-75
2023/10/16 00:20:16;;;;;;;0.57;0.40;;;;;;;13.66;100.00;100009.09;4974498;28;20459;-75
2023/10/16 00:26:06;;;;;;;0.20;0.20;;;;;;;13.77;100.00;100048.47;4975045;28;20506;-76
2023/10/16 00:31:58;;;;;;;0.20;0.20;;;;;;;13.39;100.00;99999.06;4974548;28;20097;-74
2023/10/16 00:34:24;;;;;;;0.47;0.45;;;;;;;13.15;100.00;99979.25;5005326;28;20324;-73
2023/10/16 00:36:54;;;;;;;0.40;0.30;;;;;;;12.87;100.00;100009.56;4973791;28;20054;-74
2023/10/16 00:42:43;;;;;;;0.38;0.38;;;;;;;13.64;100.00;100118.13;4973325;28;20053;-76
2023/10/16 00:45:09;;;;;;;0.30;0.30;;;;;;;13.78;100.00;100107.34;4973696;28;20078;-76
2023/10/16 00:47:35;;;;;;;0.20;0.20;;;;;;;12.78;100.00;100038.69;4974031;28;20411;-76
2023/10/16 00:53:27;;;;;;;0.40;0.40;;;;;;;12.75;100.00;99972.91;4974287;28;20547;-75
2023/10/16 00:59:17;;;;;;;0.20;0.20;;;;;;;13.25;100.00;100120.47;4974444;28;20040;-76
2023/10/16 01:01:46;;;;;;;11.48;1.98;;;;;;;13.34;100.00;100096.66;4973238;28;20039;-75
2023/10/16 01:04:13;;;;;;;0.30;0.30;;;;;;;12.84;100.00;100070.19;5004577;28;20395;-77
2023/10/16 01:06:41;;;;;;;0.30;0.30;;;;;;;13.13;100.00;100107.50;4973447;28;20086;-76
2023/10/16 01:12:28;;;;;;;0.50;0.50;;;;;;;13.16;100.00;100137.31;4973826;28;20073;-75
2023/10/16 01:14:54;;;;;;;0.77;0.77;;;;;;;13.28;100.00;100125.75;5004444;28;20054;-75
2023/10/16 01:17:29;;;;;;;0.85;0.50;;;;;;;12.47;100.00;100030.34;4973685;28;20027;-75
2023/10/16 01:19:56;;;;;;;2.08;0.30;;;;;;;13.19;100.00;100139.03;4971690;28;20053;-75
2023/10/16 01:25:46;;;;;;;0.95;0.75;;;;;;;12.07;100.00;100014.22;4974084;28;20498;-74
2023/10/16 01:31:34;;;;;;;0.50;0.50;;;;;;;12.86;100.00;100143.91;4973158;28;20105;-74
2023/10/16 01:34:00;;;;;;;0.45;0.45;;;;;;;12.92;100.00;100140.28;4973227;28;20038;-75
2023/10/16 01:36:25;;;;;;;2.28;0.65;;;;;;;12.99;100.00;100161.25;4973279;28;20039;-75
2023/10/16 01:38:51;;;;;;;0.25;0.25;;;;;;;12.38;100.00;100070.81;4989010;28;20046;-75
2023/10/16 01:41:18;;;;;;;1.10;0.95;;;;;;;12.21;100.00;100044.72;4977548;28;20442;-75
2023/10/16 01:43:44;;;;;;;0.40;0.40;;;;;;;12.48;100.00;100124.22;4976112;28;20055;-76
2023/10/16 01:46:14;;;;;;;0.30;0.30;;;;;;;12.53;100.00;100100.47;4976396;28;20041;-76
2023/10/16 01:52:04;;;;;;;0.20;0.20;;;;;;;12.60;100.00;100138.97;4976649;28;20078;-75
2023/10/16 01:57:51;;;;;;;0.40;0.32;;;;;;;12.99;100.00;100184.94;4976816;28;20072;-76
2023/10/16 02:00:17;;;;;;;0.20;0.20;;;;;;;12.10;100.00;100103.59;4976265;28;20455;-76
2023/10/16 02:02:45;;;;;;;0.20;0.20;;;;;;;12.35;100.00;100191.03;4974975;28;20041;-76
2023/10/16 02:05:11;;;;;;;0.20;0.20;;;;;;;11.95;100.00;100118.66;4976943;28;20081;-75
2023/10/16 02:07:41;;;;;;;0.50;0.50;;;;;;;12.27;100.00;100166.53;4976384;28;20039;-74
2023/10/16 02:14:06;;;;;;;0.30;0.30;;;;;;;12.75;100.00;100195.81;4956269;28;20078;-75
2023/10/16 02:17:14;;;;;;;0.55;0.55;;;;;;;12.58;100.00;100199.53;4956648;28;20141;-75
2023/10/16 02:23:38;;;;;;;0.30;0.30;;;;;;;12.33;100.00;100221.72;4976884;28;20085;-75
2023/10/16 02:26:06;;;;;;;0.35;0.35;;;;;;;12.55;100.00;100215.38;4976181;28;20035;-75
2023/10/16 02:28:35;;;;;;;0.20;0.20;;;;;;;11.69;100.00;100089.13;4976000;28;20054;-75
2023/10/16 02:31:18;;;;;;;0.30;0.30;;;;;;;12.11;100.00;100135.16;4975723;28;20113;-75
2023/10/16 02:33:50;;;;;;;0.50;0.43;;;;;;;11.98;100.00;100126.50;4975713;28;20035;-75
2023/10/16 02:36:18;;;;;;;0.28;0.28;;;;;;;12.60;100.00;100224.06;4975566;28;20043;-75
2023/10/16 02:42:14;;;;;;;0.20;0.20;;;;;;;12.01;100.00;100128.22;4975623;28;20053;-75
2023/10/16 02:44:45;;;;;;;0.52;0.52;;;;;;;11.89;100.00;100146.78;4975540;28;20022;-75
2023/10/16 02:50:32;;;;;;;0.20;0.20;;;;;;;12.22;100.00;100232.34;4975140;28;20097;-75
2023/10/16 02:52:58;;;;;;;0.20;0.20;;;;;;;11.73;100.00;100128.50;4975950;28;20031;-75
2023/10/16 02:55:23;;;;;;;0.20;0.20;;;;;;;11.59;100.00;100130.38;4975315;28;20039;-75
2023/10/16 02:57:50;;;;;;;0.30;0.30;;;;;;;11.87;100.00;100148.50;4975282;28;20047;-75
2023/10/16 03:07:45;;;;;;;0.50;0.50;;;;;;;12.25;100.00;100245.50;4975702;28;20109;-76
2023/10/16 03:10:11;;;;;;;0.50;0.50;;;;;;;12.35;100.00;100254.16;4975296;28;20046;-75
2023/10/16 03:12:36;;;;;;;0.50;0.50;;;;;;;11.86;100.00;100176.56;4975081;28;20542;-76
2023/10/16 03:15:14;;;;;;;0.68;0.50;;;;;;;12.53;100.00;100285.56;4974884;28;20046;-75
2023/10/16 03:27:08;;;;;;;1.55;1.45;;;;;;;11.65;100.00;100288.00;4975134;28;20486;-75
2023/10/16 03:32:55;;;;;;;0.65;0.60;;;;;;;10.71;100.00;100301.53;4974889;28;20042;-74
2023/10/16 03:35:26;;;;;;;0.30;0.30;;;;;;;10.13;100.00;100200.19;4974685;28;20030;-75
2023/10/16 03:37:54;;;;;;;0.52;0.45;;;;;;;9.38;100.00;100215.94;4974219;28;20039;-75
2023/10/16 03:40:20;;;;;;;0.30;0.30;;;;;;;10.05;100.00;100340.03;4974637;28;20453;-74
2023/10/16 03:46:07;;;;;;;0.20;0.20;;;;;;;10.54;100.00;100348.81;4970876;28;20509;-74
2023/10/16 03:51:54;;;;;;;0.30;0.30;;;;;;;10.66;100.00;100383.78;4973219;28;20062;-76
2023/10/16 03:54:30;;;;;;;0.22;0.22;;;;;;;10.38;100.00;100375.06;4972509;28;20434;-76
2023/10/16 03:57:00;;;;;;;0.20;0.20;;;;;;;10.47;100.00;100380.31;4974220;28;20164;-76
2023/10/16 04:02:47;;;;;;;0.20;0.20;;;;;;;10.34;100.00;100396.03;4973173;28;20045;-76
2023/10/16 04:08:34;;;;;;;0.98;0.90;;;;;;;9.90;100.00;100365.38;4974790;28;20426;-75
2023/10/16 04:11:02;;;;;;;0.28;0.28;;;;;;;9.84;100.00;100322.53;4973582;28;20031;-76
2023/10/16 04:13:30;;;;;;;0.30;0.30;;;;;;;10.22;100.00;100405.59;4972610;28;20073;-75
2023/10/16 04:22:49;;;;;;;0.20;0.20;;;;;;;9.40;100.00;100339.03;4973655;28;20058;-77
2023/10/16 04:29:17;;;;;;;0.30;0.30;;;;;;;10.23;100.00;100535.84;4973567;28;20532;-76
2023/10/16 04:38:27;;;;;;;;;;;;;;;9.51;100.00;100544.25;4954795;29;20086;-74
2023/10/16 04:47:01;;;;;;;0.30;0.30;;;;;;;9.23;100.00;100459.41;4954099;28;20054;-75
2023/10/16 04:58:38;;;;;;;0.30;0.30;;;;;;;9.64;100.00;100587.97;4972598;28;20058;-75
2023/10/16 05:07:06;;;;;;;0.30;0.30;;;;;;;8.93;100.00;100517.63;4973511;28;20074;-75
2023/10/16 05:18:51;;;;;;;0.30;0.30;;;;;;;8.48;100.00;100615.72;4976483;28;20045;-76
2023/10/16 05:22:01;;;;;;;0.30;0.30;;;;;;;8.97;100.00;100619.72;4976468;28;20465;-75
2023/10/16 06:16:30;;;;;;;0.20;0.20;;;;;;;8.57;100.00;100707.34;4975476;28;20467;-77
2023/10/16 06:18:55;;;;;;;0.30;0.30;;;;;;;9.28;100.00;100824.25;4976269;28;20058;-74
2023/10/16 06:21:21;;;;;;;0.22;0.22;;;;;;;9.30;100.00;100835.63;4975314;28;20042;-74
2023/10/16 06:23:48;;;;;;;0.35;0.35;;;;;;;8.99;100.00;100836.97;4971890;28;20027;-74
2023/10/16 06:26:16;;;;;;;0.40;0.40;;;;;;;8.91;100.00;100836.88;4974522;28;20089;-74
2023/10/16 06:32:07;;;;;;;0.20;0.20;;;;;;;8.36;100.00;100794.22;4975617;28;20046;-74
2023/10/16 06:34:34;;;;;;;0.20;0.20;;;;;;;8.57;100.00;100869.50;4975076;28;20146;-74
2023/10/16 06:37:05;;;;;;;0.22;0.22;;;;;;;8.83;100.00;100872.53;4975591;28;20475;-74
2023/10/16 06:39:36;;;;;;;0.20;0.20;;;;;;;8.79;100.00;100855.91;4974960;28;20126;-74
2023/10/16 06:45:40;;;;;;;0.47;0.47;;;;;;;9.22;100.00;100893.13;4975364;28;20070;-74
2023/10/16 06:48:08;;;;;;;0.40;0.40;;;;;;;9.19;100.00;100893.09;4974585;28;20058;-74
2023/10/16 06:50:40;;;;;;;0.20;0.20;;;;;;;9.20;100.00;100884.41;4975332;28;20030;-75
2023/10/16 06:56:31;;;;;;;0.20;0.20;;;;;;;8.63;100.00;100833.84;4975647;28;20482;-74
2023/10/16 06:58:57;;;;;;;0.20;0.20;;;;;;;8.87;100.00;100927.56;5006500;28;20038;-74
2023/10/16 07:01:25;;;;;;;0.30;0.30;;;;;;;8.63;100.00;100846.06;4974710;28;20122;-75
2023/10/16 07:03:54;;;;;;;0.20;0.20;;;;;;;8.70;100.00;100845.28;4974628;28;20115;-74
2023/10/16 07:09:47;;;;;;;0.30;0.30;;;;;;;8.86;100.00;100946.72;4975130;28;20045;-75
2023/10/16 07:12:17;;;;;;;0.20;0.20;;;;;;;9.22;100.00;100965.56;4974445;28;20034;-82
2023/10/16 07:14:55;;;;;;;0.30;0.30;;;;;;;9.16;100.00;100968.97;4974401;28;20031;-77
2023/10/16 07:30:36;;;;;;;0.38;0.38;;;;;;;8.16;100.00;100886.25;4974730;28;20046;-75
2023/10/16 07:33:20;;;;;;;0.73;0.70;;;;;;;8.53;100.00;100983.66;4973231;28;20043;-74
2023/10/16 07:35:49;;;;;;;;;;;;;;;9.08;100.00;101000.28;4986420;28;20063;-74
2023/10/16 07:41:37;;;;;;;0.20;0.20;;;;;;;8.25;100.00;100943.03;4936314;29;20102;-75
2023/10/16 07:44:04;;;;;;;0.30;0.30;;;;;;;8.79;100.00;100978.88;4936040;29;20114;-75
2023/10/16 07:46:30;;;;;;;0.20;0.20;;;;;;;8.53;100.00;100892.13;4951614;28;20126;-75
2023/10/16 07:49:01;;;;;;;0.20;0.20;;;;;;;9.12;100.00;100950.59;4969358;28;20134;-75
2023/10/16 07:54:48;;;;;;;0.20;0.20;;;;;;;9.13;100.00;100920.91;4954723;28;20455;-76
2023/10/16 07:57:17;;;;;;;0.30;0.30;;;;;;;8.82;100.00;100899.53;4954292;28;20039;-74
2023/10/16 07:59:43;;;;;;;0.40;0.40;;;;;;;8.84;100.00;100885.63;4954178;28;20034;-75
2023/10/16 08:02:17;;;;;;;0.30;0.30;;;;;;;8.57;100.00;100865.19;4954925;28;20031;-74
2023/10/16 08:04:43;;;;;;;1.20;1.00;;;;;;;9.17;100.00;100962.88;4954259;28;20043;-75
2023/10/16 08:07:16;;;;;;;0.30;0.30;;;;;;;9.36;100.00;100953.53;4954227;28;20526;-74
2023/10/16 08:12:20;;;;;;;0.20;0.20;;;;;;;9.41;100.00;100956.22;4954340;28;20122;-75
2023/10/16 08:14:54;;;;;;;0.20;0.20;;;;;;;9.38;100.00;100951.81;4960483;28;20038;-75
2023/10/16 08:21:00;;;;;;;0.88;0.80;;;;;;;9.68;100.00;100995.88;4954697;29;20046;-73
2023/10/16 08:23:33;;;;;;;0.30;0.30;;;;;;;9.70;100.00;100995.91;4954391;28;20071;-74
2023/10/16 08:26:00;;;;;;;3.15;3.05;;;;;;;9.18;100.00;100880.00;4959236;28;20463;-74
2023/10/16 08:28:35;;;;;;;0.20;0.20;;;;;;;9.82;100.00;100989.94;4973445;28;20096;-74
2023/10/16 08:31:22;;;;;;;1.15;1.05;;;;;;;9.59;100.00;100985.28;4972041;28;20471;-75
2023/10/16 08:33:47;;;;;;;0.20;0.20;;;;;;;8.79;100.00;100886.41;4972888;28;20536;-74
2023/10/16 08:36:12;;;;;;;0.20;0.20;;;;;;;9.14;100.00;100933.16;4973232;28;20121;-75
2023/10/16 08:38:40;;;;;;;0.57;0.57;;;;;;;9.05;100.00;100983.66;4973551;28;20448;-74
2023/10/16 08:41:14;;;;;;;0.30;0.30;;;;;;;9.58;100.00;100996.63;4970873;28;20101;-75
2023/10/16 08:43:53;;;;;;;0.20;0.20;;;;;;;9.74;100.00;100989.88;4971524;28;20039;-74
2023/10/16 08:52:58;;;;;;;0.30;0.30;;;;;;;9.45;100.00;100922.22;4958140;28;20496;-74
2023/10/16 08:55:26;;;;;;;0.30;0.30;;;;;;;9.84;100.00;101030.16;4957435;28;20046;-74
2023/10/16 08:57:52;;;;;;;0.20;0.20;;;;;;;9.44;100.00;100951.03;4956719;28;20472;-73
2023/10/16 09:00:44;;;;;;;10.35;8.70;;;;;;;10.00;100.00;101032.13;4955839;28;20031;-75
2023/10/16 09:06:36;;;;;;;0.20;0.20;;;;;;;9.87;100.00;100941.09;4938754;28;20151;-75
2023/10/16 09:09:11;;;;;;;4.05;3.88;;;;;;;9.78;100.00;100914.75;4951893;28;20062;-75
2023/10/16 09:11:39;;;;;;;0.22;0.22;;;;;;;9.76;100.00;100916.47;4954997;28;20094;-76
2023/10/16 09:17:26;;;;;;;0.22;0.22;;;;;;;10.35;100.00;101027.31;4958063;28;20083;-75
2023/10/16 09:19:53;;;;;;;0.82;0.82;;;;;;;10.37;100.00;101008.94;4954848;28;20431;-76
2023/10/16 09:22:23;;;;;;;0.30;0.30;;;;;;;10.14;100.00;100935.28;4954976;28;20039;-75
2023/10/16 09:25:22;;;;;;;0.73;0.55;;;;;;;10.78;100.00;101039.97;4956049;28;20089;-76
2023/10/16 09:27:49;;;;;;;0.60;0.60;;;;;;;9.99;100.00;100933.34;4954058;28;20035;-76
2023/10/16 09:30:20;;;;;;;0.50;0.40;;;;;;;10.32;100.00;100994.91;4955992;28;20024;-77
2023/10/16 09:32:48;;;;;;;0.20;0.20;;;;;;;10.67;100.00;101046.88;4954185;28;20082;-76
2023/10/16 09:35:17;;;;;;;0.68;0.68;;;;;;;10.66;100.00;101053.00;4957423;28;20030;-75
2023/10/16 09:37:47;;;;;;;0.82;0.50;;;;;;;10.74;100.00;101051.31;4954108;28;20062;-75
2023/10/16 09:40:19;;;;;;;0.77;0.75;;;;;;;10.37;100.00;101022.06;4954089;28;20035;-75
2023/10/16 09:43:06;;;;;;;0.63;0.45;;;;;;;10.69;100.00;101051.25;4955353;28;20475;-77
2023/10/16 09:48:54;;;;;;;0.38;0.35;;;;;;;10.96;100.00;101029.66;4971053;28;20053;-75
2023/10/16 09:51:20;;;;;;;7.88;1.10;;;;;;;11.29;100.00;101003.63;4974653;28;20383;-75
2023/10/16 09:53:46;;;;;;;1.33;1.23;;;;;;;10.76;100.00;101021.59;4974433;28;20061;-76
2023/10/16 10:03:05;;;;;;;1.27;1.25;;;;;;;10.49;100.00;100916.41;4959087;28;20046;-74
2023/10/16 10:08:53;;;;;;;0.95;0.80;;;;;;;11.15;100.00;101024.53;4968527;28;20526;-76
2023/10/16 10:15:12;;;;;;;0.60;0.32;;;;;;;11.08;100.00;101023.63;4958953;28;20065;-76
2023/10/16 10:18:32;;;;;;;0.20;0.20;;;;;;;11.09;100.00;101014.84;4956973;28;20089;-75
2023/10/16 10:24:21;;;;;;;0.70;0.70;;;;;;;10.62;100.00;100936.59;4956825;28;20073;-76
2023/10/16 10:30:25;;;;;;;0.20;0.20;;;;;;;11.94;100.00;101016.28;4974744;28;20094;-74
2023/10/16 10:32:55;;;;;;;0.88;0.77;;;;;;;10.96;100.00;100908.88;4967354;28;20512;-75
2023/10/16 10:35:27;;;;;;;1.67;1.58;;;;;;;11.10;100.00;101021.88;4973490;28;20027;-75
2023/10/16 10:41:15;;;;;;;0.90;0.90;;;;;;;11.70;100.00;100997.72;4973999;28;20046;-76
2023/10/16 10:43:50;;;;;;;2.47;2.03;;;;;;;11.33;100.00;101005.38;4975345;28;20039;-74
2023/10/16 10:46:22;;;;;;;0.47;0.30;;;;;;;11.27;100.00;101021.13;4973408;28;20129;-76
2023/10/16 10:48:47;;;;;;;1.05;0.75;;;;;;;11.76;100.00;100992.50;4971241;28;20051;-77
2023/10/16 10:51:16;;;;;;;0.50;0.40;;;;;;;12.07;100.00;101003.16;4973136;28;20086;-76
2023/10/16 10:53:57;;;;;;;0.57;0.50;;;;;;;12.38;100.00;101002.34;4969759;28;20067;-75
2023/10/16 11:05:00;;;;;;;1.15;0.73;;;;;;;12.14;100.00;100932.16;4951128;28;20062;-76
2023/10/16 11:07:39;;;;;;;0.20;0.20;;;;;;;11.89;100.00;100883.88;4967099;28;20039;-76
2023/10/16 11:10:06;;;;;;;0.73;0.60;;;;;;;11.98;100.00;100975.94;4974591;28;20394;-75
2023/10/16 11:12:32;;;;;;;0.50;0.47;;;;;;;11.81;100.00;100907.50;4973964;28;20069;-75
2023/10/16 11:15:01;;;;;;;0.88;0.88;;;;;;;12.24;100.00;100973.41;4974718;28;20085;-76
2023/10/16 11:20:52;;;;;;;0.70;0.70;;;;;;;11.52;100.00;100867.97;4975101;28;20093;-76
2023/10/16 11:23:32;;;;;;;3.55;2.08;;;;;;;12.13;100.00;100948.81;4975062;28;20031;-75
2023/10/16 11:29:19;;;;;;;0.32;0.32;;;;;;;11.83;100.00;100845.28;4975011;28;20061;-75
2023/10/16 11:35:18;;;;;;;1.35;0.85;;;;;;;12.20;100.00;100947.09;4975186;28;20042;-77
2023/10/16 11:38:30;;;;;;;0.60;0.50;;;;;;;12.52;100.00;100959.41;4973853;28;20039;-76
2023/10/16 11:40:39;;;;;;;0.22;0.22;;;;;;;12.14;100.00;100829.56;4968580;28;20039;-75
2023/10/16 11:43:11;;;;;;;3.72;1.85;;;;;;;12.97;100.00;100918.13;4973862;28;20332;-75
2023/10/16 11:46:05;;;;;;;0.43;0.30;;;;;;;12.30;100.00;100813.78;4973957;28;20463;-75
2023/10/16 11:52:08;;;;;;;0.50;0.50;;;;;;;12.09;100.00;100862.88;4973670;28;20053;-75
2023/10/16 11:54:34;;;;;;;0.40;0.35;;;;;;;12.41;100.00;100860.25;4974384;28;20101;-78
2023/10/16 11:57:16;;;;;;;1.55;0.90;;;;;;;12.57;100.00;100936.56;4973265;28;20331;-73
2023/10/16 11:59:42;;;;;;;0.82;0.60;;;;;;;12.83;100.00;100929.56;4954425;28;20127;-75
2023/10/16 12:02:17;;;;;;;1.85;1.67;;;;;;;12.65;100.00;100859.34;4954991;28;20033;-74
2023/10/16 12:04:42;;;;;;;1.20;0.90;;;;;;;13.24;100.00;100954.09;4954287;28;20046;-75
2023/10/16 12:07:08;;;;;;;0.95;0.95;;;;;;;13.26;100.00;100936.50;4956205;28;20035;-75
2023/10/16 12:09:52;;;;;;;0.50;0.50;;;;;;;13.39;100.00;100956.72;4973633;28;20035;-76
2023/10/16 12:19:01;;;;;;;1.05;0.80;;;;;;;12.41;100.00;100856.75;4973788;28;20141;-75
2023/10/16 12:21:28;;;;;;;2.45;2.25;;;;;;;12.95;100.00;100972.59;4973931;28;20444;-73
2023/10/16 12:23:54;;;;;;;0.25;0.25;;;;;;;13.04;100.00;100951.47;4970192;28;20046;-75
2023/10/16 12:29:41;;;;;;;0.55;0.47;;;;;;;13.38;100.00;100928.59;4954820;29;20058;-75
2023/10/16 12:32:10;;;;;;;0.77;0.77;;;;;;;12.88;100.00;100846.16;4954483;28;20031;-74
2023/10/16 12:34:36;;;;;;;0.68;0.60;;;;;;;13.08;100.00;100868.91;4949196;28;20232;-74
2023/10/16 12:37:06;;;;;;;0.85;0.80;;;;;;;13.22;100.00;100935.63;4954111;28;20182;-74
2023/10/16 12:42:55;;;;;;;0.57;0.55;;;;;;;13.04;100.00;100841.72;4954343;28;20046;-73
2023/10/16 12:45:25;;;;;;;0.28;0.28;;;;;;;13.05;100.00;100845.22;4953732;28;20388;-77
2023/10/16 12:47:51;;;;;;;0.25;0.20;;;;;;;13.43;100.00;100931.22;4957973;28;20141;-80
2023/10/16 12:50:23;;;;;;;0.40;0.40;;;;;;;12.96;100.00;100846.13;4965413;28;20032;-78
2023/10/16 12:52:56;;;;;;;4.22;1.58;;;;;;;13.07;100.00;100859.28;4953986;28;20063;-79
2023/10/16 12:55:22;;;;;;;0.27;0.27;;;;;;;13.66;100.00;100918.81;4960529;28;20055;-78
2023/10/16 12:57:49;;;;;;;0.45;0.45;;;;;;;12.75;100.00;100846.19;4953588;28;20114;-78
2023/10/16 13:03:36;;;;;;;1.65;1.05;;;;;;;13.46;100.00;100892.56;4941568;28;20118;-76
2023/10/16 13:06:05;;;;;;;0.20;0.20;;;;;;;13.79;100.00;100911.75;4934068;28;20056;-77
2023/10/16 13:08:31;;;;;;;0.55;0.52;;;;;;;12.79;100.00;100813.69;4934077;29;20032;-75
2023/10/16 13:10:57;;;;;;;0.50;0.32;;;;;;;13.05;100.00;100843.47;4934415;29;20500;-76
2023/10/16 13:16:53;;;;;;;0.60;0.60;;;;;;;13.68;100.00;100885.41;4935055;28;20047;-77
2023/10/16 13:19:19;;;;;;;1.27;1.15;;;;;;;13.82;100.00;100938.09;4941219;28;20122;-74
2023/10/16 13:21:46;;;;;;;0.43;0.43;;;;;;;13.99;100.00;100939.75;4950559;28;20126;-79
2023/10/16 13:24:14;;;;;;;0.40;0.30;;;;;;;13.74;100.00;100939.88;4951960;28;20038;-78
2023/10/16 13:26:40;;;;;;;2.42;0.93;;;;;;;13.86;100.00;100933.66;4951889;28;20108;-77
2023/10/16 13:29:13;;;;;;;0.30;0.30;;;;;;;14.26;100.00;100950.16;4952633;28;20030;-77
2023/10/16 13:32:13;;;;;;;0.30;0.30;;;;;;;13.96;100.00;100940.66;4952452;28;20137;-77
2023/10/16 13:34:39;;;;;;;1.10;1.00;;;;;;;13.60;100.00;100915.31;4934301;28;20050;-79
2023/10/16 13:37:11;;;;;;;0.98;0.75;;;;;;;13.64;100.00;100862.56;4946872;28;20035;-78
2023/10/16 13:39:39;;;;;;;0.63;0.55;;;;;;;13.95;100.00;100941.53;4955028;28;20083;-77
2023/10/16 13:45:28;;;;;;;1.52;1.38;;;;;;;13.26;100.00;100839.00;4957372;28;20061;-76
2023/10/16 13:51:18;;;;;;;0.77;0.65;;;;;;;13.75;100.00;100907.34;4955953;28;20098;-76
2023/10/16 13:53:47;;;;;;;0.68;0.68;;;;;;;13.80;100.00;100899.41;4956609;28;20042;-77
2023/10/16 13:56:16;;;;;;;0.30;0.30;;;;;;;13.67;100.00;100943.41;4956956;28;20317;-76
2023/10/16 13:58:45;;;;;;;0.43;0.30;;;;;;;14.05;100.00;100934.47;4954603;28;20050;-78
2023/10/16 14:04:35;;;;;;;1.65;0.90;;;;;;;14.04;100.00;100898.38;4956755;28;20074;-78
2023/10/16 14:07:00;;;;;;;0.20;0.20;;;;;;;14.22;100.00;100944.91;4956554;28;20468;-77
2023/10/16 14:09:32;;;;;;;4.72;0.82;;;;;;;13.84;100.00;100946.00;4955118;28;20035;-78
2023/10/16 14:11:59;;;;;;;0.55;0.55;;;;;;;13.71;100.00;100864.28;4939684;28;20090;-77
2023/10/16 14:17:48;;;;;;;1.13;1.02;;;;;;;13.79;100.00;100847.53;4952745;28;20098;-78
2023/10/16 14:20:27;;;;;;;0.45;0.45;;;;;;;14.22;100.00;100929.94;4955656;28;20031;-77
2023/10/16 14:22:54;;;;;;;0.28;0.28;;;;;;;13.39;100.00;100858.28;4956638;28;20039;-77
2023/10/16 14:25:21;;;;;;;0.47;0.47;;;;;;;14.12;100.00;100950.25;4956324;28;20043;-79
2023/10/16 14:27:52;;;;;;;1.48;1.27;;;;;;;13.73;100.00;100873.06;4952820;28;20054;-81
2023/10/16 14:30:25;;;;;;;2.78;0.65;;;;;;;13.68;100.00;100924.97;4938485;28;20063;-77
2023/10/16 14:36:18;;;;;;;0.65;0.63;;;;;;;13.94;100.00;100945.06;4936733;28;20123;-81
2023/10/16 14:38:44;;;;;;;0.57;0.55;;;;;;;13.62;100.00;100880.16;4936734;28;20040;-80
2023/10/16 14:41:15;;;;;;;0.30;0.30;;;;;;;14.00;100.00;100947.69;4937714;29;20046;-76
2023/10/16 14:47:09;;;;;;;0.73;0.55;;;;;;;13.99;100.00;100932.72;4936248;29;20078;-73
2023/10/16 14:49:35;;;;;;;0.40;0.40;;;;;;;13.57;100.00;100863.47;4967218;28;20391;-73
2023/10/16 14:52:01;;;;;;;0.40;0.30;;;;;;;13.92;100.00;100946.84;4936431;28;20050;-73
2023/10/16 14:54:26;;;;;;;0.57;0.52;;;;;;;13.33;100.00;100864.47;4936516;28;20527;-73
2023/10/16 15:00:20;;;;;;;0.38;0.38;;;;;;;13.18;100.00;100864.50;4936249;28;20510;-75
2023/10/16 15:02:47;;;;;;;0.20;0.20;;;;;;;13.72;100.00;100942.53;4936022;28;20078;-73
2023/10/16 15:05:13;;;;;;;0.20;0.20;;;;;;;13.67;100.00;100944.31;4936899;29;20444;-74
2023/10/16 15:07:38;;;;;;;0.50;0.50;;;;;;;13.15;100.00;100867.16;4936275;28;20036;-73
2023/10/16 15:13:27;;;;;;;0.55;0.50;;;;;;;13.20;100.00;100868.00;4936566;28;20047;-74
2023/10/16 15:16:00;;;;;;;1.27;1.15;;;;;;;13.14;100.00;100879.44;4936239;28;20036;-73
2023/10/16 15:18:25;;;;;;;0.77;0.60;;;;;;;13.18;100.00;100909.28;4935609;28;20036;-73
2023/10/16 15:20:51;;;;;;;0.95;0.50;;;;;;;13.47;100.00;100954.94;4935294;28;20051;-74
2023/10/16 15:26:38;;;;;;;0.75;0.52;;;;;;;13.06;100.00;100902.28;4936420;29;20058;-75
2023/10/16 15:29:04;;;;;;;1.20;1.10;;;;;;;13.07;100.00;100927.78;4935853;29;20031;-76
2023/10/16 15:31:29;;;;;;;0.85;0.85;;;;;;;12.76;100.00;100877.78;4929364;28;20487;-78
2023/10/16 15:33:55;;;;;;;2.83;1.55;;;;;;;12.82;100.00;100884.78;4942482;28;20109;-77
2023/10/16 15:36:33;;;;;;;1.42;1.33;;;;;;;13.38;100.00;100991.84;4962690;28;20113;-77
2023/10/16 15:45:42;;;;;;;1.85;1.05;;;;;;;13.25;100.00;100992.72;4974102;28;20152;-78
2023/10/16 15:48:29;;;;;;;2.97;2.78;;;;;;;13.34;100.00;101008.56;4974828;28;20050;-77
2023/10/16 15:50:55;;;;;;;1.33;1.23;;;;;;;12.66;100.00;100904.97;4973845;28;20035;-78
2023/10/16 15:56:41;;;;;;;1.48;1.38;;;;;;;13.10;100.00;101026.13;4974105;28;20049;-77
2023/10/16 15:59:07;;;;;;;1.33;1.10;;;;;;;12.92;100.00;101012.94;4973312;28;20375;-77
2023/10/16 16:01:34;;;;;;;2.28;1.70;;;;;;;12.85;100.00;101013.81;4973741;28;20390;-76
2023/10/16 16:04:00;;;;;;;2.28;2.15;;;;;;;12.68;100.00;100977.81;4971824;28;20035;-78
2023/10/16 16:09:47;;;;;;;1.77;1.40;;;;;;;12.88;100.00;101027.88;4974404;28;20053;-73
2023/10/16 16:12:28;;;;;;;2.45;2.13;;;;;;;12.91;100.00;101041.94;4974218;28;20018;-73
2023/10/16 16:14:54;;;;;;;2.38;2.17;;;;;;;12.88;100.00;101048.09;4973801;28;20039;-73
2023/10/16 16:17:20;;;;;;;2.45;1.55;;;;;;;12.64;100.00;101039.28;4974126;28;20510;-73
2023/10/16 16:19:45;;;;;;;0.45;0.45;;;;;;;12.64;100.00;101048.91;4973746;28;20037;-72
2023/10/16 16:22:11;;;;;;;0.57;0.57;;;;;;;12.57;100.00;101029.63;4965923;28;20042;-74
2023/10/16 16:27:59;;;;;;;1.15;0.85;;;;;;;12.38;100.00;101018.16;4973753;28;20077;-73
2023/10/16 16:30:25;;;;;;;2.35;2.15;;;;;;;12.17;100.00;100958.44;4973232;28;20471;-73
2023/10/16 16:32:50;;;;;;;4.13;1.35;;;;;;;11.97;100.00;100960.19;4972896;28;20034;-73
2023/10/16 16:38:38;;;;;;;1.88;1.65;;;;;;;11.85;100.00;100953.09;4973436;28;20045;-73
2023/10/16 16:44:25;;;;;;;9.52;5.00;;;;;;;12.37;100.00;101086.59;4974150;28;20054;-74
2023/10/16 16:50:17;;;;;;;0.95;0.85;;;;;;;11.80;100.00;100986.38;4974177;28;20471;-73
2023/10/16 16:52:46;;;;;;;1.67;1.35;;;;;;;12.32;100.00;101077.81;4971413;28;20077;-72
2023/10/16 16:55:12;;;;;;;3.40;1.48;;;;;;;11.66;100.00;100973.19;4973298;28;20098;-73
2023/10/16 16:57:39;;;;;;;2.33;1.55;;;;;;;12.01;100.00;101070.66;4973049;28;20070;-74
2023/10/16 17:03:26;;;;;;;1.42;1.33;;;;;;;11.86;100.00;101007.44;4973350;28;20103;-73
2023/10/16 17:09:15;;;;;;;1.58;1.45;;;;;;;12.33;100.00;101090.06;4973102;28;20081;-72
2023/10/16 17:15:06;;;;;;;1.50;1.27;;;;;;;11.64;100.00;101011.72;4975986;28;20550;-73
2023/10/16 17:17:32;;;;;;;1.65;1.23;;;;;;;12.07;100.00;101095.22;4976773;28;20447;-72
2023/10/16 17:19:58;;;;;;;0.93;0.88;;;;;;;12.03;100.00;101091.69;4976899;28;20183;-73
2023/10/16 17:22:24;;;;;;;2.58;1.42;;;;;;;12.10;100.00;101097.88;4975178;28;20400;-73
2023/10/16 17:24:50;;;;;;;0.45;0.40;;;;;;;11.94;100.00;101081.13;4976611;28;20073;-74
2023/10/16 17:27:17;;;;;;;1.83;1.73;;;;;;;11.90;100.00;101095.16;4976422;28;20039;-73
2023/10/16 17:29:44;;;;;;;2.25;1.05;;;;;;;11.55;100.00;101030.06;4976108;28;20470;-72
2023/10/16 17:32:09;;;;;;;1.25;1.15;;;;;;;11.89;100.00;101102.13;4977074;28;20434;-74
2023/10/16 17:34:37;;;;;;;4.20;2.63;;;;;;;11.80;100.00;101102.09;4976409;28;20035;-73
2023/10/16 17:37:06;;;;;;;3.03;2.67;;;;;;;11.78;100.00;101090.66;4974896;28;20049;-74
2023/10/16 17:39:32;;;;;;;1.70;1.38;;;;;;;11.66;100.00;101102.00;4976778;28;20049;-72
2023/10/16 17:41:58;;;;;;;2.20;1.63;;;;;;;11.68;100.00;101073.06;4976318;28;20026;-75
2023/10/16 17:47:45;;;;;;;1.45;1.23;;;;;;;11.05;100.00;101052.50;4976850;28;20061;-74
2023/10/16 17:50:43;;;;;;;1.92;1.83;;;;;;;11.57;100.00;101136.09;4977159;28;20042;-72
2023/10/16 17:53:13;;;;;;;2.08;0.90;;;;;;;11.39;100.00;101123.69;4976672;28;20062;-73